Time;durP1;ratioP1;P1;durP2;ratioP2;P2;SDS_P1;SDS_P2;PMS_P1;PMS_P2;Temp;Humidity;BMP_temperature;BMP_pressure;BME280_temperature;BME280_humidity;BME280_pressure;Samples;Min_cycle;Max_cycle;Signal;HPM_P1;HPM_P2
2021/07/11 00:00:28;;;;;;;6.15;4.05;;;15.30;99.90;;;;;;4958366;28;20497;-86
2021/07/11 00:02:55;;;;;;;7.75;4.30;;;15.30;99.90;;;;;;4958043;28;20046;-86
2021/07/11 00:05:24;;;;;;;9.63;4.60;;;15.30;99.90;;;;;;4988531;28;20043;-88
2021/07/11 00:07:50;;;;;;;7.13;4.50;;;15.20;99.90;;;;;;4995904;28;20124;-87
2021/07/11 00:10:16;;;;;;;5.88;3.72;;;15.20;99.90;;;;;;4997249;28;20046;-86
2021/07/11 00:12:44;;;;;;;7.45;4.95;;;15.10;99.90;;;;;;5007446;28;20411;-89
2021/07/11 00:15:12;;;;;;;4.53;4.15;;;15.10;99.90;;;;;;5013976;28;20045;-86
2021/07/11 00:17:43;;;;;;;5.85;4.40;;;15.10;99.90;;;;;;4983664;28;20482;-86
2021/07/11 00:20:10;;;;;;;;;;;15.10;99.90;;;;;;5000270;28;20038;-84
2021/07/11 00:22:36;;;;;;;4.75;4.13;;;15.10;99.90;;;;;;5002676;28;19921;-85
2021/07/11 00:25:04;;;;;;;5.05;4.07;;;15.00;99.90;;;;;;4976695;28;20057;-85
2021/07/11 00:27:30;;;;;;;4.53;4.13;;;15.00;99.90;;;;;;4987127;28;20050;-86
2021/07/11 00:29:56;;;;;;;8.68;4.90;;;15.00;99.90;;;;;;4982865;28;20049;-85
2021/07/11 00:32:22;;;;;;;15.52;5.35;;;15.00;99.90;;;;;;4972499;28;20049;-85
2021/07/11 00:34:48;;;;;;;4.90;4.50;;;15.00;99.90;;;;;;4976443;28;20050;-87
2021/07/11 00:37:14;;;;;;;4.78;4.25;;;15.00;99.90;;;;;;4976947;28;20054;-85
2021/07/11 00:39:39;;;;;;;6.25;4.55;;;15.00;99.90;;;;;;4993986;28;20054;-84
2021/07/11 00:42:05;;;;;;;7.18;4.80;;;15.00;99.90;;;;;;4973911;28;20050;-85
2021/07/11 00:44:31;;;;;;;6.53;4.60;;;15.00;99.90;;;;;;4984799;28;20041;-85
2021/07/11 00:46:57;;;;;;;8.32;4.65;;;14.90;99.90;;;;;;4995505;28;20045;-85
2021/07/11 00:49:23;;;;;;;6.15;5.25;;;14.90;99.90;;;;;;4996124;28;20048;-84
2021/07/11 00:51:49;;;;;;;4.65;4.25;;;14.90;99.90;;;;;;4999499;28;20113;-88
2021/07/11 00:54:15;;;;;;;6.25;3.97;;;14.90;99.90;;;;;;4957406;28;20125;-85
2021/07/11 00:56:44;;;;;;;4.88;4.40;;;14.90;99.90;;;;;;4984214;28;20130;-84
2021/07/11 00:59:11;;;;;;;5.50;4.47;;;14.80;99.90;;;;;;4993082;28;20076;-85
2021/07/11 01:01:48;;;;;;;6.40;4.40;;;14.80;99.90;;;;;;4984180;28;20046;-86
2021/07/11 01:04:21;;;;;;;6.28;4.18;;;14.80;99.90;;;;;;5006122;28;20047;-84
2021/07/11 01:06:53;;;;;;;8.32;5.22;;;14.80;99.90;;;;;;4992203;28;20034;-87
2021/07/11 01:09:26;;;;;;;6.25;4.35;;;14.80;99.90;;;;;;4996308;28;20046;-84
2021/07/11 01:12:00;;;;;;;5.15;4.55;;;14.90;99.90;;;;;;4986403;28;20053;-85
2021/07/11 01:14:29;;;;;;;6.25;4.40;;;14.80;99.90;;;;;;4990967;28;20057;-86
2021/07/11 01:16:57;;;;;;;4.88;4.47;;;14.80;99.90;;;;;;4976047;28;20095;-85
2021/07/11 01:19:49;;;;;;;4.65;4.22;;;14.90;99.90;;;;;;4991723;28;20042;-85
2021/07/11 01:22:18;;;;;;;5.75;4.05;;;14.90;99.90;;;;;;4995055;28;20046;-85
2021/07/11 01:24:51;;;;;;;4.83;4.13;;;14.90;99.90;;;;;;4994900;28;20053;-84
2021/07/11 01:27:18;;;;;;;6.25;4.40;;;14.90;99.90;;;;;;5004073;28;20537;-85
2021/07/11 01:29:44;;;;;;;4.60;4.20;;;15.00;99.90;;;;;;4962053;28;20070;-84
2021/07/11 01:32:11;;;;;;;4.93;4.13;;;14.90;99.90;;;;;;4974583;28;20246;-84
2021/07/11 01:34:39;;;;;;;4.90;4.40;;;15.00;99.90;;;;;;4976678;28;20050;-86
2021/07/11 01:37:05;;;;;;;5.72;4.50;;;15.00;99.90;;;;;;4987003;28;20038;-84
2021/07/11 01:39:31;;;;;;;7.68;4.40;;;15.00;99.90;;;;;;5005785;28;20042;-84
2021/07/11 01:41:58;;;;;;;5.78;4.88;;;15.00;99.90;;;;;;4974765;28;20046;-85
2021/07/11 01:44:27;;;;;;;5.13;4.63;;;15.00;99.90;;;;;;4975030;28;20038;-83
2021/07/11 01:46:53;;;;;;;6.80;5.05;;;14.90;99.90;;;;;;4991353;28;20050;-87
2021/07/11 01:49:20;;;;;;;4.90;4.40;;;14.90;99.90;;;;;;4985006;28;20052;-84
2021/07/11 01:51:47;;;;;;;10.75;5.38;;;14.90;99.90;;;;;;4993976;28;20107;-88
2021/07/11 01:54:14;;;;;;;6.72;4.50;;;14.80;99.90;;;;;;4985972;28;20065;-85
2021/07/11 01:56:41;;;;;;;5.55;4.75;;;14.80;99.90;;;;;;4992185;28;20046;-86
2021/07/11 01:59:09;;;;;;;6.47;5.00;;;14.70;99.90;;;;;;4958823;28;20117;-85
2021/07/11 02:01:35;;;;;;;8.25;4.90;;;14.70;99.90;;;;;;4992157;28;20501;-85
2021/07/11 02:04:01;;;;;;;6.47;5.30;;;14.70;99.90;;;;;;4975287;28;20121;-87
2021/07/11 02:06:27;;;;;;;7.57;5.15;;;14.60;99.90;;;;;;4967736;28;20046;-86
2021/07/11 02:08:53;;;;;;;6.93;5.13;;;14.60;99.90;;;;;;4958055;28;20105;-89
2021/07/11 02:11:22;;;;;;;8.00;5.00;;;14.50;99.90;;;;;;4973015;28;20051;-86
2021/07/11 02:13:58;;;;;;;5.50;4.63;;;14.50;99.90;;;;;;4951930;28;20049;-86
2021/07/11 02:16:33;;;;;;;4.60;4.20;;;14.50;99.90;;;;;;4971045;28;20049;-87
2021/07/11 02:19:00;;;;;;;6.90;4.00;;;14.60;99.90;;;;;;4985546;28;20050;-87
2021/07/11 02:21:28;;;;;;;8.65;5.20;;;14.60;99.90;;;;;;4975755;28;20061;-88
2021/07/11 02:23:55;;;;;;;6.20;4.68;;;14.60;99.90;;;;;;4963966;28;20109;-91
2021/07/11 02:26:22;;;;;;;6.50;5.75;;;14.60;99.90;;;;;;4959152;28;20049;-90
2021/07/11 02:28:50;;;;;;;7.35;5.13;;;14.70;99.90;;;;;;4973114;28;20047;-86
2021/07/11 02:31:16;;;;;;;6.85;5.43;;;14.80;99.90;;;;;;4921513;28;20164;-86
2021/07/11 02:33:43;;;;;;;7.78;5.78;;;14.80;99.90;;;;;;4972417;28;20042;-86
2021/07/11 02:36:17;;;;;;;6.90;5.45;;;14.90;99.90;;;;;;4952601;28;20129;-87
2021/07/11 02:39:07;;;;;;;6.38;5.07;;;15.00;99.90;;;;;;4958173;28;20117;-87
2021/07/11 02:41:34;;;;;;;5.40;4.90;;;15.00;99.90;;;;;;4960270;28;20436;-88
2021/07/11 02:44:05;;;;;;;5.68;4.75;;;15.10;99.90;;;;;;4955232;28;20039;-88
2021/07/11 02:46:39;;;;;;;6.80;6.15;;;15.10;99.90;;;;;;4955291;28;20041;-88
2021/07/11 02:49:09;;;;;;;6.55;5.30;;;15.00;99.90;;;;;;4969313;28;20046;-89
2021/07/11 02:51:39;;;;;;;6.90;5.10;;;15.00;99.90;;;;;;4973245;28;20066;-87
2021/07/11 02:54:07;;;;;;;10.02;6.78;;;15.00;99.90;;;;;;4971905;28;20050;-86
2021/07/11 02:56:38;;;;;;;7.13;5.88;;;15.00;99.90;;;;;;4955595;28;20042;-89
2021/07/11 02:59:06;;;;;;;7.10;5.55;;;14.90;99.90;;;;;;4973823;28;20582;-87
2021/07/11 03:01:33;;;;;;;7.95;6.20;;;14.90;99.90;;;;;;4969807;28;20038;-86
2021/07/11 03:04:02;;;;;;;7.55;6.53;;;14.90;99.90;;;;;;4990788;28;20045;-92
2021/07/11 03:06:32;;;;;;;8.52;6.85;;;14.80;99.90;;;;;;4973885;28;20046;-87
2021/07/11 03:08:58;;;;;;;9.88;6.82;;;14.80;99.90;;;;;;4986939;28;20106;-91
2021/07/11 03:11:26;;;;;;;9.75;6.93;;;14.80;99.90;;;;;;4939093;28;20446;-87
2021/07/11 03:13:53;;;;;;;12.02;7.50;;;14.80;99.90;;;;;;4955587;28;20054;-88
2021/07/11 03:16:23;;;;;;;10.23;7.63;;;14.90;99.90;;;;;;4971483;28;20093;-86
2021/07/11 03:18:51;;;;;;;13.15;8.10;;;14.90;99.90;;;;;;4935675;29;20099;-90
2021/07/11 03:21:22;;;;;;;12.07;8.52;;;14.90;99.90;;;;;;4983618;28;20078;-88
2021/07/11 03:23:50;;;;;;;11.80;9.07;;;14.90;99.90;;;;;;4956608;28;20093;-87
2021/07/11 03:26:17;;;;;;;11.93;9.80;;;14.90;99.90;;;;;;4970057;28;20048;-86
2021/07/11 03:28:45;;;;;;;12.57;9.35;;;14.90;99.90;;;;;;4973259;28;20038;-87
2021/07/11 03:31:11;;;;;;;15.15;9.02;;;14.80;99.90;;;;;;4989271;28;20434;-86
2021/07/11 03:33:41;;;;;;;10.68;8.95;;;14.80;99.90;;;;;;4968747;28;20047;-86
2021/07/11 03:36:08;;;;;;;12.43;9.60;;;14.70;99.90;;;;;;4982895;28;20056;-86
2021/07/11 03:38:39;;;;;;;15.13;9.45;;;14.80;99.90;;;;;;4959489;28;20112;-86
2021/07/11 03:41:07;;;;;;;17.27;10.75;;;14.80;99.90;;;;;;4972123;28;20401;-86
2021/07/11 03:43:36;;;;;;;14.00;9.68;;;14.70;99.90;;;;;;4971282;28;20046;-87
2021/07/11 03:46:07;;;;;;;12.80;10.15;;;14.70;99.90;;;;;;4981902;28;20133;-89
2021/07/11 03:48:44;;;;;;;14.30;10.20;;;14.80;99.90;;;;;;4988358;28;20121;-87
2021/07/11 03:51:11;;;;;;;12.32;9.50;;;14.70;99.90;;;;;;4961564;28;20394;-86
2021/07/11 03:53:39;;;;;;;14.90;10.30;;;14.70;99.90;;;;;;4954878;28;20463;-87
2021/07/11 03:56:06;;;;;;;12.75;9.75;;;14.80;99.90;;;;;;4962550;28;20150;-87
2021/07/11 03:58:37;;;;;;;18.58;11.02;;;14.80;99.90;;;;;;4984143;28;20053;-86
2021/07/11 04:01:05;;;;;;;15.63;10.15;;;14.70;99.90;;;;;;4978674;28;20042;-90
2021/07/11 04:03:32;;;;;;;14.25;9.75;;;14.80;99.90;;;;;;4953796;28;20105;-86
2021/07/11 04:06:01;;;;;;;13.07;10.07;;;14.80;99.90;;;;;;4977772;28;20065;-86
2021/07/11 04:08:28;;;;;;;11.80;8.88;;;14.80;99.90;;;;;;4956417;28;20070;-88
2021/07/11 04:10:58;;;;;;;11.15;8.90;;;14.80;99.90;;;;;;4955934;28;20379;-87
2021/07/11 04:13:24;;;;;;;11.05;8.70;;;14.80;99.90;;;;;;4952006;28;20069;-86
2021/07/11 04:15:57;;;;;;;13.43;9.02;;;14.80;99.90;;;;;;4953291;28;20082;-88
2021/07/11 04:18:25;;;;;;;10.50;8.57;;;14.90;99.90;;;;;;4971183;28;20039;-87
2021/07/11 04:20:54;;;;;;;9.50;7.40;;;14.90;99.90;;;;;;4940969;28;20117;-87
2021/07/11 04:23:28;;;;;;;7.88;6.82;;;14.90;99.90;;;;;;4974092;28;20518;-87
2021/07/11 04:25:56;;;;;;;9.27;7.60;;;14.90;99.90;;;;;;4981126;28;20065;-86
2021/07/11 04:28:23;;;;;;;8.70;7.35;;;15.00;99.90;;;;;;4951331;29;20043;-87
2021/07/11 04:30:49;;;;;;;10.55;7.18;;;15.00;99.90;;;;;;4957654;28;20074;-87
2021/07/11 04:33:15;;;;;;;9.55;6.78;;;15.10;99.90;;;;;;4958313;28;20085;-87
2021/07/11 04:35:44;;;;;;;8.57;6.90;;;15.10;99.90;;;;;;4945371;28;20053;-86
2021/07/11 04:38:10;;;;;;;12.43;7.18;;;15.20;99.90;;;;;;4990632;28;21404;-87
2021/07/11 04:40:37;;;;;;;8.27;6.65;;;15.20;99.90;;;;;;4976911;28;20490;-86
2021/07/11 04:43:05;;;;;;;9.98;7.22;;;15.30;99.90;;;;;;4976783;28;20046;-88
2021/07/11 04:45:31;;;;;;;9.23;6.68;;;15.40;99.90;;;;;;4969203;28;20057;-86
2021/07/11 04:47:56;;;;;;;6.57;5.88;;;15.40;99.90;;;;;;4974697;28;20051;-86
2021/07/11 04:50:22;;;;;;;7.50;6.20;;;15.50;99.90;;;;;;4943166;28;20070;-86
2021/07/11 04:52:48;;;;;;;8.05;6.80;;;15.60;99.90;;;;;;4972497;28;20050;-85
2021/07/11 04:55:17;;;;;;;10.15;7.13;;;15.70;99.90;;;;;;4989014;28;20042;-86
2021/07/11 04:57:43;;;;;;;8.13;6.90;;;15.70;99.90;;;;;;4992780;28;20050;-85
2021/07/11 05:00:13;;;;;;;10.30;6.72;;;15.80;99.90;;;;;;4943202;28;20055;-89
2021/07/11 05:02:39;;;;;;;6.68;6.07;;;15.80;99.90;;;;;;4973048;28;20486;-85
2021/07/11 05:05:07;;;;;;;8.80;6.47;;;15.90;99.90;;;;;;4938145;28;20062;-85
2021/07/11 05:07:33;;;;;;;8.50;6.28;;;15.90;99.90;;;;;;4963740;28;20054;-85
2021/07/11 05:09:59;;;;;;;6.82;6.07;;;16.00;99.90;;;;;;4994405;28;20030;-85
2021/07/11 05:12:25;;;;;;;9.02;5.93;;;16.00;99.90;;;;;;4966753;28;20053;-86
2021/07/11 05:14:51;;;;;;;9.85;5.60;;;16.10;99.90;;;;;;4971852;28;20502;-85
2021/07/11 05:17:17;;;;;;;10.95;5.32;;;16.10;99.90;;;;;;4970870;28;20058;-86
2021/07/11 05:19:44;;;;;;;7.75;5.15;;;16.10;99.90;;;;;;5011750;28;20046;-86
2021/07/11 05:22:09;;;;;;;5.30;4.80;;;16.20;99.90;;;;;;5001227;28;20053;-89
2021/07/11 05:24:36;;;;;;;4.82;3.60;;;16.20;99.90;;;;;;4987904;28;20041;-85
2021/07/11 05:27:03;;;;;;;4.13;3.72;;;16.30;99.90;;;;;;5004197;28;20497;-88
2021/07/11 05:29:28;;;;;;;4.35;3.95;;;16.40;99.90;;;;;;4956721;28;20045;-87
2021/07/11 05:31:54;;;;;;;4.10;3.70;;;16.50;99.90;;;;;;4975266;28;20042;-87
2021/07/11 05:34:20;;;;;;;4.45;4.05;;;16.50;99.90;;;;;;4974701;28;20042;-87
2021/07/11 05:36:46;;;;;;;4.88;4.43;;;16.60;99.90;;;;;;4964610;28;20126;-86
2021/07/11 05:39:12;;;;;;;6.53;3.80;;;16.70;99.90;;;;;;5000638;28;20049;-91
2021/07/11 05:41:37;;;;;;;5.68;4.10;;;16.70;99.90;;;;;;4978076;28;20053;-87
2021/07/11 05:44:04;;;;;;;4.20;3.78;;;16.80;99.90;;;;;;4994663;28;20456;-86
2021/07/11 05:46:30;;;;;;;5.68;4.20;;;16.90;99.90;;;;;;4979937;28;20083;-86
2021/07/11 05:48:56;;;;;;;4.90;4.35;;;17.00;99.90;;;;;;5004994;28;20109;-87
2021/07/11 05:51:22;;;;;;;4.38;3.92;;;17.10;99.90;;;;;;4971190;28;20049;-86
2021/07/11 05:53:48;;;;;;;3.80;3.50;;;17.20;99.90;;;;;;4964625;28;20045;-86
2021/07/11 05:56:14;;;;;;;3.40;3.10;;;17.20;99.90;;;;;;5000464;28;20050;-88
2021/07/11 05:58:39;;;;;;;5.38;3.33;;;17.40;99.90;;;;;;4991712;28;20060;-87
2021/07/11 06:01:07;;;;;;;4.75;2.97;;;17.40;99.90;;;;;;5010372;28;20060;-87
2021/07/11 06:03:36;;;;;;;3.35;3.10;;;17.50;99.90;;;;;;4974067;28;20041;-89
2021/07/11 06:06:02;;;;;;;4.60;3.13;;;17.60;99.90;;;;;;4988630;28;20070;-86
2021/07/11 06:08:28;;;;;;;3.80;2.40;;;17.70;99.90;;;;;;4955333;28;20101;-86
2021/07/11 06:10:55;;;;;;;3.92;3.10;;;17.70;99.90;;;;;;4959483;28;20507;-85
2021/07/11 06:13:22;;;;;;;3.30;3.00;;;17.80;99.90;;;;;;4940012;28;20058;-86
2021/07/11 06:15:49;;;;;;;5.82;3.08;;;17.90;99.90;;;;;;4971944;28;20039;-86
2021/07/11 06:18:14;;;;;;;3.13;2.83;;;18.00;99.90;;;;;;4955524;28;20035;-91
2021/07/11 06:20:40;;;;;;;3.30;3.00;;;18.10;99.90;;;;;;4953831;28;20230;-86
2021/07/11 06:23:06;;;;;;;3.08;2.88;;;18.10;99.90;;;;;;4952392;28;20101;-86
2021/07/11 06:25:32;;;;;;;5.05;3.03;;;18.10;99.90;;;;;;4956586;28;20487;-86
2021/07/11 06:27:58;;;;;;;7.20;3.80;;;18.20;99.90;;;;;;4979654;28;20057;-87
2021/07/11 06:30:24;;;;;;;4.45;3.20;;;18.30;99.90;;;;;;4976701;28;20046;-86
2021/07/11 06:32:50;;;;;;;3.72;3.38;;;18.40;99.90;;;;;;4981105;28;20417;-87
2021/07/11 06:35:18;;;;;;;4.03;3.55;;;18.40;99.90;;;;;;4939473;28;20123;-91
2021/07/11 06:37:45;;;;;;;7.10;3.45;;;18.50;99.90;;;;;;4953466;28;20077;-86
2021/07/11 06:40:16;;;;;;;5.90;3.50;;;18.50;99.90;;;;;;4948324;28;20053;-87
2021/07/11 06:42:42;;;;;;;3.45;3.15;;;18.60;99.90;;;;;;4963991;28;20047;-86
2021/07/11 06:45:10;;;;;;;5.00;3.63;;;18.60;99.90;;;;;;4955456;28;20053;-87
2021/07/11 06:47:37;;;;;;;5.57;3.85;;;18.70;99.90;;;;;;4959049;28;20606;-90
2021/07/11 06:50:05;;;;;;;4.60;3.80;;;18.70;99.90;;;;;;4972558;28;20055;-87
2021/07/11 06:52:31;;;;;;;4.20;3.85;;;18.80;99.90;;;;;;4971002;28;20054;-87
2021/07/11 06:54:57;;;;;;;4.70;3.40;;;18.90;99.90;;;;;;4951015;28;20114;-86
2021/07/11 06:57:23;;;;;;;6.22;3.65;;;18.90;99.90;;;;;;4978781;28;20121;-86
2021/07/11 06:59:49;;;;;;;5.30;3.83;;;19.00;99.90;;;;;;4957110;28;20046;-86
2021/07/11 07:02:15;;;;;;;6.97;3.60;;;19.00;99.90;;;;;;4955808;28;20038;-86
2021/07/11 07:04:40;;;;;;;5.68;3.83;;;19.20;99.90;;;;;;4955482;28;20050;-86
2021/07/11 07:07:06;;;;;;;4.13;3.15;;;19.20;99.90;;;;;;4954985;28;20139;-86
2021/07/11 07:09:32;;;;;;;3.78;3.30;;;19.30;99.90;;;;;;4995914;28;20042;-87
2021/07/11 07:11:58;;;;;;;6.28;3.20;;;19.40;99.90;;;;;;4977508;28;20088;-87
2021/07/11 07:14:24;;;;;;;4.63;3.38;;;19.50;99.90;;;;;;4984366;28;20069;-86
2021/07/11 07:16:50;;;;;;;5.32;3.42;;;19.60;99.90;;;;;;4973936;28;20073;-87
2021/07/11 07:19:15;;;;;;;6.18;3.38;;;19.70;99.90;;;;;;4966645;28;20474;-87
2021/07/11 07:21:41;;;;;;;7.00;3.40;;;19.80;99.90;;;;;;4972721;28;20102;-89
2021/07/11 07:24:07;;;;;;;3.72;3.42;;;19.80;99.90;;;;;;4982567;28;20053;-86
2021/07/11 07:26:33;;;;;;;4.65;3.67;;;19.80;99.90;;;;;;4968940;28;20103;-87
2021/07/11 07:28:59;;;;;;;3.60;3.25;;;19.80;99.90;;;;;;4999122;28;20046;-87
2021/07/11 07:31:25;;;;;;;6.50;4.10;;;19.90;99.90;;;;;;5000682;28;20050;-87
2021/07/11 07:33:51;;;;;;;6.55;3.63;;;19.90;99.90;;;;;;4987093;28;20053;-87
2021/07/11 07:36:17;;;;;;;5.28;3.90;;;19.90;99.90;;;;;;4999181;28;20476;-86
2021/07/11 07:38:42;;;;;;;6.07;3.42;;;20.00;99.90;;;;;;4998068;28;20437;-87
2021/07/11 07:41:08;;;;;;;4.15;3.70;;;20.10;99.90;;;;;;4956040;28;20078;-88
2021/07/11 07:43:34;;;;;;;4.63;3.88;;;20.20;99.90;;;;;;4980777;28;20046;-88
2021/07/11 07:46:00;;;;;;;7.03;3.80;;;20.30;99.90;;;;;;4976964;28;20498;-87
2021/07/11 07:48:26;;;;;;;6.57;3.30;;;20.30;99.90;;;;;;4974085;28;20037;-86
2021/07/11 07:50:51;;;;;;;3.75;3.30;;;20.40;99.90;;;;;;4980850;28;20121;-87
2021/07/11 07:53:17;;;;;;;9.70;3.50;;;20.40;99.90;;;;;;4966225;28;20042;-88
2021/07/11 07:55:43;;;;;;;7.72;4.30;;;20.50;99.90;;;;;;5007067;28;20745;-89
2021/07/11 07:58:09;;;;;;;5.40;3.60;;;20.50;99.90;;;;;;4964257;28;20528;-89
2021/07/11 08:00:35;;;;;;;4.85;3.65;;;20.50;99.90;;;;;;4984555;28;20046;-88
2021/07/11 08:03:00;;;;;;;4.40;3.60;;;20.60;99.90;;;;;;4996669;28;20055;-88
2021/07/11 08:05:27;;;;;;;7.55;4.18;;;20.60;99.90;;;;;;4962278;28;20440;-89
2021/07/11 08:07:53;;;;;;;4.43;3.50;;;20.70;99.90;;;;;;4972769;28;20062;-88
2021/07/11 08:10:19;;;;;;;5.35;4.20;;;20.70;99.90;;;;;;4960546;28;20039;-87
2021/07/11 08:12:46;;;;;;;6.43;4.35;;;20.80;99.90;;;;;;4963219;28;20619;-86
2021/07/11 08:15:17;;;;;;;9.20;4.15;;;20.90;99.90;;;;;;4982048;28;20551;-88
2021/07/11 08:17:44;;;;;;;6.95;3.80;;;20.90;99.90;;;;;;4977249;28;20042;-88
2021/07/11 08:20:11;;;;;;;7.10;3.83;;;21.00;99.90;;;;;;4967763;28;20096;-88
2021/07/11 08:22:37;;;;;;;6.20;3.80;;;21.10;99.90;;;;;;4996040;28;20100;-88
2021/07/11 08:25:05;;;;;;;4.82;3.50;;;21.20;99.90;;;;;;4981929;28;20049;-87
2021/07/11 08:27:31;;;;;;;6.05;3.70;;;21.20;99.90;;;;;;4978591;28;20061;-88
2021/07/11 08:29:57;;;;;;;4.30;3.90;;;21.30;99.90;;;;;;4962318;28;20042;-87
2021/07/11 08:32:23;;;;;;;5.75;4.15;;;21.40;99.90;;;;;;4958875;28;20100;-87
2021/07/11 08:34:49;;;;;;;4.15;3.75;;;21.40;99.90;;;;;;4959690;28;20057;-87
2021/07/11 08:37:15;;;;;;;5.57;4.45;;;21.40;99.90;;;;;;4968345;28;20049;-87
2021/07/11 08:39:40;;;;;;;3.65;3.33;;;21.40;99.90;;;;;;4999758;28;20043;-87
2021/07/11 08:42:08;;;;;;;5.18;4.32;;;21.40;99.90;;;;;;4986618;28;20128;-87
2021/07/11 08:44:35;;;;;;;3.80;3.50;;;21.40;99.90;;;;;;4980875;28;20050;-88
2021/07/11 08:47:01;;;;;;;4.07;3.75;;;21.50;99.90;;;;;;5003234;28;20045;-87
2021/07/11 08:49:27;;;;;;;6.38;4.20;;;21.60;99.90;;;;;;4961888;28;20494;-90
2021/07/11 08:52:02;;;;;;;6.13;4.70;;;21.60;99.90;;;;;;4994696;28;20042;-86
2021/07/11 08:54:28;;;;;;;6.03;4.05;;;21.50;99.90;;;;;;4984779;28;20045;-88
2021/07/11 08:57:06;;;;;;;4.75;3.83;;;21.50;99.90;;;;;;5011302;28;20046;-87
2021/07/11 08:59:32;;;;;;;6.82;4.00;;;21.70;99.90;;;;;;5010937;28;20042;-87
2021/07/11 09:01:59;;;;;;;5.60;3.45;;;21.80;99.90;;;;;;4988863;28;20765;-88
2021/07/11 09:04:25;;;;;;;3.38;3.17;;;21.80;99.90;;;;;;4984817;28;20066;-87
2021/07/11 09:06:56;;;;;;;7.40;3.97;;;22.00;99.90;;;;;;5000687;28;20039;-87
2021/07/11 09:09:33;;;;;;;5.32;3.72;;;22.10;99.90;;;;;;4993479;28;20046;-86
2021/07/11 09:12:08;;;;;;;4.10;3.65;;;22.20;99.90;;;;;;5011488;28;20124;-86
2021/07/11 09:14:44;;;;;;;5.03;4.10;;;22.30;99.90;;;;;;4976976;28;20498;-88
2021/07/11 09:17:11;;;;;;;6.53;4.18;;;22.40;99.90;;;;;;4979652;28;20145;-87
2021/07/11 09:19:48;;;;;;;6.30;3.72;;;22.40;99.90;;;;;;4993135;28;20038;-87
2021/07/11 09:22:19;;;;;;;5.30;4.30;;;22.30;99.90;;;;;;4983973;28;20050;-87
2021/07/11 09:24:55;;;;;;;5.28;4.13;;;22.30;99.90;;;;;;5008475;28;20037;-86
2021/07/11 09:27:24;;;;;;;7.45;4.80;;;22.30;99.90;;;;;;4992840;28;20045;-88
2021/07/11 09:29:51;;;;;;;5.85;4.13;;;22.30;99.90;;;;;;4992694;28;20038;-87
2021/07/11 09:32:27;;;;;;;5.35;4.65;;;22.30;99.90;;;;;;4984868;28;20478;-88
2021/07/11 09:34:54;;;;;;;9.18;3.95;;;22.40;99.90;;;;;;5008033;28;20545;-87
2021/07/11 09:37:21;;;;;;;5.63;4.50;;;22.50;99.90;;;;;;4993895;28;20054;-87
2021/07/11 09:39:56;;;;;;;4.97;3.80;;;22.60;99.90;;;;;;5009172;28;20046;-88
2021/07/11 09:42:34;;;;;;;9.65;4.20;;;22.70;99.90;;;;;;5005276;28;20478;-89
2021/07/11 09:45:06;;;;;;;5.85;4.15;;;22.90;99.90;;;;;;5007641;28;20037;-88
2021/07/11 09:47:32;;;;;;;4.13;3.55;;;23.00;99.90;;;;;;4993182;28;20038;-89
2021/07/11 09:50:11;;;;;;;5.75;4.25;;;23.30;99.90;;;;;;5010243;28;20046;-87
2021/07/11 09:52:43;;;;;;;4.27;3.87;;;23.50;99.90;;;;;;4987681;28;20045;-87
2021/07/11 09:55:14;;;;;;;5.53;4.18;;;23.70;99.90;;;;;;4976016;28;20046;-87
2021/07/11 09:57:49;;;;;;;7.25;3.85;;;23.80;99.90;;;;;;5010069;28;20046;-88
2021/07/11 10:00:27;;;;;;;4.03;3.67;;;23.70;99.90;;;;;;4992614;28;20129;-88
2021/07/11 10:02:55;;;;;;;3.90;3.40;;;23.80;99.90;;;;;;5003906;28;20112;-87
2021/07/11 10:05:22;;;;;;;5.32;4.10;;;24.00;99.90;;;;;;4980424;28;20042;-88
2021/07/11 10:07:49;;;;;;;4.45;3.90;;;24.10;99.90;;;;;;5000066;28;20056;-88
2021/07/11 10:10:18;;;;;;;4.43;4.03;;;24.20;99.90;;;;;;4993042;28;20435;-88
2021/07/11 10:12:45;;;;;;;3.60;3.35;;;24.10;99.90;;;;;;4992035;28;20072;-88
2021/07/11 10:15:18;;;;;;;5.13;3.35;;;24.20;99.90;;;;;;4992879;28;20069;-87
2021/07/11 10:18:07;;;;;;;5.00;3.50;;;24.40;99.90;;;;;;4991903;28;20042;-88
2021/07/11 10:20:37;;;;;;;7.90;3.60;;;24.80;99.90;;;;;;5008637;28;20048;-90
2021/07/11 10:23:05;;;;;;;5.38;4.10;;;25.00;99.90;;;;;;4979100;28;20046;-87
2021/07/11 10:25:32;;;;;;;7.18;3.60;;;25.20;99.90;;;;;;5010265;28;20038;-87
2021/07/11 10:28:08;;;;;;;3.80;3.50;;;25.20;99.90;;;;;;4991951;28;20885;-89
2021/07/11 10:30:36;;;;;;;4.28;3.17;;;25.10;99.90;;;;;;4992738;28;20081;-90
2021/07/11 10:33:13;;;;;;;3.67;2.53;;;25.00;99.90;;;;;;5008579;28;20038;-88
2021/07/11 10:36:00;;;;;;;5.18;4.03;;;25.10;99.90;;;;;;4984736;28;20429;-89
2021/07/11 10:38:32;;;;;;;3.47;3.17;;;25.20;99.90;;;;;;4992391;28;20125;-89
2021/07/11 10:41:19;;;;;;;6.70;3.42;;;25.70;99.90;;;;;;5009165;28;20052;-89
2021/07/11 10:43:58;;;;;;;4.00;3.60;;;26.10;99.90;;;;;;5009091;28;20046;-88
2021/07/11 10:46:33;;;;;;;3.42;3.13;;;26.40;99.90;;;;;;4998999;28;20172;-88
2021/07/11 10:49:12;;;;;;;6.00;3.47;;;26.70;99.90;;;;;;4991455;28;20029;-88
2021/07/11 10:51:47;;;;;;;6.65;2.33;;;26.90;99.90;;;;;;4992052;28;20126;-90
2021/07/11 10:54:20;;;;;;;3.97;3.10;;;26.90;99.90;;;;;;5009698;28;20053;-88
2021/07/11 10:56:46;;;;;;;3.00;2.78;;;27.00;99.90;;;;;;5004527;28;20049;-88
2021/07/11 10:59:24;;;;;;;4.90;2.90;;;27.00;99.90;;;;;;4991881;28;20406;-88
2021/07/11 11:01:50;;;;;;;3.40;3.10;;;27.20;99.90;;;;;;4994379;28;20449;-88
2021/07/11 11:04:16;;;;;;;5.88;3.20;;;27.40;99.90;;;;;;4976038;28;20038;-88
2021/07/11 11:06:42;;;;;;;6.50;3.30;;;27.30;99.90;;;;;;4988098;28;20049;-89
2021/07/11 11:09:08;;;;;;;6.80;2.97;;;27.70;99.90;;;;;;4972257;28;20050;-88
2021/07/11 11:11:33;;;;;;;3.63;3.22;;;28.00;99.90;;;;;;4964685;28;20398;-89
2021/07/11 11:14:07;;;;;;;4.63;2.72;;;28.20;99.90;;;;;;4979488;28;20133;-90
2021/07/11 11:16:45;;;;;;;3.30;2.92;;;28.30;99.90;;;;;;4974926;28;20046;-89
2021/07/11 11:19:15;;;;;;;4.35;3.13;;;28.50;99.80;;;;;;4956408;28;20053;-89
2021/07/11 11:21:41;;;;;;;3.95;3.55;;;28.60;99.90;;;;;;4965686;28;20052;-91
2021/07/11 11:24:08;;;;;;;4.45;3.17;;;28.50;97.90;;;;;;4978542;28;20045;-91
2021/07/11 11:26:34;;;;;;;6.30;2.65;;;28.20;99.60;;;;;;4982349;28;20398;-89
2021/07/11 11:29:01;;;;;;;3.40;3.20;;;28.20;99.70;;;;;;4980879;28;20055;-88
2021/07/11 11:31:35;;;;;;;4.38;3.38;;;28.30;99.80;;;;;;4980623;28;20062;-89
2021/07/11 11:34:09;;;;;;;8.90;3.22;;;28.50;99.90;;;;;;4980112;28;20113;-88
2021/07/11 11:36:48;;;;;;;3.42;2.72;;;28.60;99.40;;;;;;4979605;28;20042;-89
2021/07/11 11:39:27;;;;;;;5.07;3.92;;;28.50;99.90;;;;;;4982581;28;20043;-88
2021/07/11 11:41:53;;;;;;;5.60;3.38;;;28.40;99.10;;;;;;4983626;28;20295;-88
2021/07/11 11:44:24;;;;;;;3.47;2.92;;;28.00;98.40;;;;;;4982500;28;20043;-88
2021/07/11 11:46:52;;;;;;;4.07;3.67;;;27.60;99.90;;;;;;4965294;28;20034;-88
2021/07/11 11:49:29;;;;;;;4.60;2.80;;;27.50;99.00;;;;;;4983846;28;20065;-89
2021/07/11 11:51:57;;;;;;;5.70;2.80;;;27.50;99.90;;;;;;4984884;28;20046;-88
2021/07/11 11:54:30;;;;;;;4.03;2.97;;;27.30;99.90;;;;;;4985606;28;20049;-89
2021/07/11 11:56:59;;;;;;;3.05;2.83;;;27.50;99.90;;;;;;4980685;28;20482;-88
2021/07/11 11:59:26;;;;;;;4.80;3.33;;;27.50;99.90;;;;;;4968260;28;20501;-88
2021/07/11 12:02:00;;;;;;;6.40;3.60;;;27.50;99.80;;;;;;4979707;28;20067;-88
2021/07/11 12:04:28;;;;;;;3.42;3.13;;;27.10;99.40;;;;;;4986301;28;20046;-88
2021/07/11 12:06:55;;;;;;;6.47;3.22;;;26.80;99.90;;;;;;4956171;28;20077;-88
2021/07/11 12:09:27;;;;;;;3.20;3.00;;;26.60;99.90;;;;;;4970167;28;20050;-88
2021/07/11 12:11:58;;;;;;;3.72;3.13;;;26.40;99.90;;;;;;4990782;28;20399;-88
2021/07/11 12:14:24;;;;;;;3.60;3.30;;;26.20;99.90;;;;;;4985726;28;20081;-88
2021/07/11 12:16:59;;;;;;;5.50;3.55;;;26.10;99.90;;;;;;4963566;28;20050;-89
2021/07/11 12:19:25;;;;;;;4.25;3.15;;;25.80;99.90;;;;;;4992570;28;20045;-88
2021/07/11 12:21:53;;;;;;;5.05;3.28;;;25.60;99.90;;;;;;4990975;28;20165;-88
2021/07/11 12:24:23;;;;;;;9.35;4.03;;;25.30;99.90;;;;;;4980951;28;20185;-89
2021/07/11 12:26:56;;;;;;;5.38;4.22;;;24.70;99.90;;;;;;4983769;28;20038;-89
2021/07/11 12:29:33;;;;;;;8.75;4.22;;;24.30;99.90;;;;;;4991384;28;20863;-89
2021/07/11 12:32:01;;;;;;;4.72;4.10;;;24.00;99.90;;;;;;4952495;28;20094;-90
2021/07/11 12:34:27;;;;;;;6.82;4.40;;;23.80;99.90;;;;;;4967507;28;20065;-88
2021/07/11 12:37:00;;;;;;;7.15;4.65;;;23.60;99.90;;;;;;4976775;28;20733;-88
2021/07/11 12:39:27;;;;;;;5.68;4.30;;;23.50;99.90;;;;;;4991798;28;20050;-89
2021/07/11 12:41:54;;;;;;;5.28;3.97;;;23.40;99.90;;;;;;4976285;28;20062;-87
2021/07/11 12:44:41;;;;;;;7.00;4.05;;;23.40;99.90;;;;;;4991316;28;20049;-89
2021/07/11 12:47:10;;;;;;;6.20;4.10;;;23.30;99.90;;;;;;4990442;28;20030;-87
2021/07/11 12:49:49;;;;;;;5.30;3.80;;;23.20;99.90;;;;;;4986626;28;20042;-87
2021/07/11 12:52:15;;;;;;;5.97;4.65;;;23.10;99.90;;;;;;4957013;28;20535;-88